Time;durP1;ratioP1;P1;durP2;ratioP2;P2;SDS_P1;SDS_P2;PMS_P1;PMS_P2;Temp;Humidity;BMP_temperature;BMP_pressure;BME280_temperature;BME280_humidity;BME280_pressure;Samples;Min_cycle;Max_cycle;Signal;HPM_P1;HPM_P2
2022/04/24 00:00:45;;;;;;;11.80;5.62;;;;;;;;;;4409150;32;20181;-63
2022/04/24 00:34:40;;;;;;;8.07;5.43;;;;;;;;;;4258645;28;20169;-63
2022/04/24 00:37:07;;;;;;;11.75;6.28;;;;;;;;;;4218617;34;20117;-63
2022/04/24 00:39:33;;;;;;;11.12;6.30;;;;;;;;;;4218920;34;20612;-66
2022/04/24 00:41:59;;;;;;;10.65;5.78;;;;;;;;;;4219193;34;20120;-65
2022/04/24 00:44:27;;;;;;;10.82;5.82;;;;;;;;;;4218996;34;20534;-66
2022/04/24 00:46:58;;;;;;;12.73;6.60;;;;;;;;;;4219036;34;20287;-67
2022/04/24 00:49:25;;;;;;;17.00;6.20;;;;;;;;;;4206062;34;20193;-64
2022/04/24 00:51:51;;;;;;;17.67;6.30;;;;;;;;;;4219040;34;20121;-64
2022/04/24 00:54:17;;;;;;;13.60;5.97;;;;;;;;;;4219166;34;20200;-64
2022/04/24 00:56:43;;;;;;;13.48;6.25;;;;;;;;;;4218970;34;20136;-64
2022/04/24 00:59:11;;;;;;;14.63;5.97;;;;;;;;;;4218949;34;20184;-63
2022/04/24 01:01:38;;;;;;;9.73;5.95;;;;;;;;;;4219004;34;20101;-63
2022/04/24 01:04:05;;;;;;;9.60;6.53;;;;;;;;;;4218851;34;20496;-63
2022/04/24 01:06:34;;;;;;;9.95;5.80;;;;;;;;;;4219197;34;20416;-63
2022/04/24 01:09:20;;;;;;;13.88;6.12;;;;;;;;;;4218964;34;20111;-63
2022/04/24 01:11:50;;;;;;;15.95;5.95;;;;;;;;;;4218937;34;20104;-63
2022/04/24 01:14:17;;;;;;;11.35;6.10;;;;;;;;;;4218015;34;20118;-63
2022/04/24 01:16:44;;;;;;;10.43;5.75;;;;;;;;;;4218914;34;20140;-66
2022/04/24 01:19:10;;;;;;;10.95;5.90;;;;;;;;;;4219004;34;20089;-66
2022/04/24 01:21:37;;;;;;;15.88;7.43;;;;;;;;;;4218824;34;20121;-65
2022/04/24 01:24:07;;;;;;;15.75;5.87;;;;;;;;;;4218846;34;20540;-66
2022/04/24 01:26:33;;;;;;;18.70;6.43;;;;;;;;;;4218998;34;20133;-65
2022/04/24 01:28:59;;;;;;;11.32;6.50;;;;;;;;;;4218568;34;20124;-66
2022/04/24 01:31:25;;;;;;;8.55;5.68;;;;;;;;;;4218674;34;20144;-66
2022/04/24 01:33:51;;;;;;;14.15;6.70;;;;;;;;;;4218622;34;20133;-66
2022/04/24 01:36:17;;;;;;;10.13;5.80;;;;;;;;;;4218935;34;20200;-65
2022/04/24 01:38:43;;;;;;;9.35;6.00;;;;;;;;;;4218553;34;20212;-66
2022/04/24 01:41:10;;;;;;;15.07;6.47;;;;;;;;;;4218556;34;20752;-66
2022/04/24 01:43:39;;;;;;;16.35;6.65;;;;;;;;;;4229041;33;20110;-65
2022/04/24 01:46:09;;;;;;;10.77;7.20;;;;;;;;;;4218779;34;20122;-65
2022/04/24 01:48:35;;;;;;;12.50;6.55;;;;;;;;;;4218457;34;20212;-64
2022/04/24 01:51:07;;;;;;;16.02;6.43;;;;;;;;;;4228609;33;20101;-64
2022/04/24 01:53:34;;;;;;;12.98;6.40;;;;;;;;;;4218402;34;20125;-65
2022/04/24 01:56:06;;;;;;;15.57;6.50;;;;;;;;;;4218370;34;20097;-64
2022/04/24 01:58:33;;;;;;;16.25;6.15;;;;;;;;;;4218341;34;20141;-64
2022/04/24 02:00:59;;;;;;;11.27;6.82;;;;;;;;;;4218830;34;20109;-64
2022/04/24 02:03:26;;;;;;;12.52;6.87;;;;;;;;;;4218742;34;20129;-64
2022/04/24 02:05:52;;;;;;;11.35;6.68;;;;;;;;;;4218268;34;20129;-64
2022/04/24 02:08:18;;;;;;;11.68;6.43;;;;;;;;;;4228716;33;20121;-64
2022/04/24 02:10:44;;;;;;;8.77;5.93;;;;;;;;;;4218295;34;20105;-65
2022/04/24 02:13:10;;;;;;;15.07;6.43;;;;;;;;;;4218179;33;20121;-64
2022/04/24 02:15:36;;;;;;;11.88;6.62;;;;;;;;;;4218419;34;20533;-65
2022/04/24 02:18:02;;;;;;;10.77;7.30;;;;;;;;;;4218455;34;20223;-65
2022/04/24 02:20:29;;;;;;;12.13;6.50;;;;;;;;;;4218189;34;20462;-65
2022/04/24 02:22:57;;;;;;;9.55;5.72;;;;;;;;;;4218278;34;20532;-65
2022/04/24 02:25:27;;;;;;;20.12;7.03;;;;;;;;;;4217920;34;20105;-65
2022/04/24 02:27:54;;;;;;;10.93;6.68;;;;;;;;;;4218282;33;20141;-65
2022/04/24 02:30:21;;;;;;;13.20;6.82;;;;;;;;;;4217997;34;20212;-65
2022/04/24 02:32:47;;;;;;;14.85;7.53;;;;;;;;;;4218122;34;20205;-65
2022/04/24 02:35:13;;;;;;;11.65;7.00;;;;;;;;;;4218317;34;20520;-65
2022/04/24 02:37:39;;;;;;;11.95;6.82;;;;;;;;;;4228327;33;20120;-67
2022/04/24 02:40:14;;;;;;;10.48;6.70;;;;;;;;;;4217921;34;20517;-66
2022/04/24 02:42:40;;;;;;;9.48;6.90;;;;;;;;;;4218054;34;20529;-67
2022/04/24 02:45:07;;;;;;;15.90;7.82;;;;;;;;;;4217731;34;20580;-63
2022/04/24 02:47:33;;;;;;;15.25;7.72;;;;;;;;;;4228190;33;20126;-64
2022/04/24 02:49:59;;;;;;;11.70;7.03;;;;;;;;;;4218080;34;20183;-65
2022/04/24 02:52:26;;;;;;;13.98;7.62;;;;;;;;;;4217824;34;20114;-64
2022/04/24 02:54:52;;;;;;;13.95;7.03;;;;;;;;;;4217764;34;20217;-65
2022/04/24 02:57:18;;;;;;;16.02;7.60;;;;;;;;;;4227942;33;20109;-65
2022/04/24 02:59:49;;;;;;;28.50;8.73;;;;;;;;;;4217571;34;20147;-66
2022/04/24 03:02:17;;;;;;;20.48;7.37;;;;;;;;;;4217730;34;20113;-63
2022/04/24 03:04:45;;;;;;;11.43;6.80;;;;;;;;;;4217726;34;20121;-65
2022/04/24 03:07:11;;;;;;;11.38;6.97;;;;;;;;;;4217677;33;20129;-65
2022/04/24 03:09:37;;;;;;;26.45;7.22;;;;;;;;;;4204587;34;20101;-65
2022/04/24 03:12:03;;;;;;;22.75;7.82;;;;;;;;;;4217510;34;20232;-65
2022/04/24 03:14:29;;;;;;;15.10;7.90;;;;;;;;;;4217506;34;20536;-65
2022/04/24 03:16:55;;;;;;;15.55;7.25;;;;;;;;;;4227961;33;20185;-65
2022/04/24 03:19:21;;;;;;;14.32;7.12;;;;;;;;;;4217736;34;20188;-65
2022/04/24 03:21:48;;;;;;;25.73;7.50;;;;;;;;;;4217870;34;20121;-64
2022/04/24 03:24:14;;;;;;;14.77;7.97;;;;;;;;;;4217316;34;20133;-64
2022/04/24 03:26:40;;;;;;;19.42;7.65;;;;;;;;;;4227643;33;20108;-64
2022/04/24 03:29:06;;;;;;;13.27;7.35;;;;;;;;;;4217387;34;20100;-65
2022/04/24 03:31:32;;;;;;;16.08;7.15;;;;;;;;;;4217752;34;20205;-65
2022/04/24 03:33:58;;;;;;;11.43;7.72;;;;;;;;;;4217499;34;20548;-65
2022/04/24 03:36:26;;;;;;;17.12;7.87;;;;;;;;;;4217419;34;20112;-65
2022/04/24 03:38:52;;;;;;;18.10;7.43;;;;;;;;;;4219116;33;20113;-66
2022/04/24 03:41:18;;;;;;;16.12;8.88;;;;;;;;;;4219630;34;20477;-66
2022/04/24 03:43:44;;;;;;;9.00;6.30;;;;;;;;;;4219827;34;20118;-69
2022/04/24 03:46:10;;;;;;;13.95;7.28;;;;;;;;;;4219571;34;20132;-68
2022/04/24 03:48:37;;;;;;;14.75;7.05;;;;;;;;;;4229775;33;20124;-69
2022/04/24 03:51:04;;;;;;;17.95;7.87;;;;;;;;;;4229903;33;20121;-68
2022/04/24 03:53:30;;;;;;;14.98;6.82;;;;;;;;;;4219465;33;20484;-68
2022/04/24 03:55:56;;;;;;;9.90;6.47;;;;;;;;;;4219729;34;20089;-67
2022/04/24 03:58:22;;;;;;;11.30;5.53;;;;;;;;;;4219384;34;20148;-67
2022/04/24 04:00:48;;;;;;;14.23;6.15;;;;;;;;;;4219382;34;20184;-68
2022/04/24 04:03:14;;;;;;;13.10;6.45;;;;;;;;;;4219400;33;20129;-68
2022/04/24 04:05:40;;;;;;;12.57;6.07;;;;;;;;;;4219544;34;20544;-71
2022/04/24 04:08:06;;;;;;;9.20;6.05;;;;;;;;;;4219318;34;20200;-62
2022/04/24 04:10:32;;;;;;;17.77;5.78;;;;;;;;;;4219181;34;20141;-63
2022/04/24 04:12:58;;;;;;;11.23;5.68;;;;;;;;;;4219561;34;20464;-62
2022/04/24 04:15:24;;;;;;;9.48;5.45;;;;;;;;;;4229777;33;20143;-63
2022/04/24 04:17:50;;;;;;;12.95;6.00;;;;;;;;;;4219340;34;20124;-62
2022/04/24 04:20:16;;;;;;;16.55;6.50;;;;;;;;;;4219120;34;20121;-59
2022/04/24 04:22:48;;;;;;;14.70;5.28;;;;;;;;;;4229208;33;20114;-63
2022/04/24 04:25:14;;;;;;;9.90;5.37;;;;;;;;;;4219251;34;20434;-64
2022/04/24 04:27:40;;;;;;;10.57;5.30;;;;;;;;;;4218291;34;20545;-63
2022/04/24 04:30:07;;;;;;;10.35;5.82;;;;;;;;;;4219401;34;20151;-63
2022/04/24 04:32:35;;;;;;;8.80;4.82;;;;;;;;;;4219455;34;20122;-65
2022/04/24 04:35:01;;;;;;;9.95;5.60;;;;;;;;;;4219195;34;20091;-65
2022/04/24 04:37:27;;;;;;;7.68;5.30;;;;;;;;;;4218995;34;20105;-63
2022/04/24 04:39:53;;;;;;;13.00;5.68;;;;;;;;;;4219281;34;20521;-64
2022/04/24 04:42:19;;;;;;;12.07;5.20;;;;;;;;;;4219032;33;20094;-64
2022/04/24 04:44:45;;;;;;;8.02;5.50;;;;;;;;;;4229270;33;20508;-63
2022/04/24 04:47:11;;;;;;;10.00;4.93;;;;;;;;;;4219304;34;20580;-64
2022/04/24 04:49:37;;;;;;;15.35;5.57;;;;;;;;;;4219035;34;20224;-63
2022/04/24 04:52:03;;;;;;;9.02;5.85;;;;;;;;;;4218958;33;20139;-65
2022/04/24 04:54:29;;;;;;;10.70;6.50;;;;;;;;;;4219164;34;20105;-62
2022/04/24 04:56:55;;;;;;;8.57;5.37;;;;;;;;;;4219154;34;20219;-65
2022/04/24 04:59:21;;;;;;;11.93;4.78;;;;;;;;;;4218823;34;20196;-64
2022/04/24 05:01:47;;;;;;;11.32;5.20;;;;;;;;;;4218282;34;20389;-64
2022/04/24 05:04:38;;;;;;;13.77;5.03;;;;;;;;;;4214464;34;20217;-64
2022/04/24 05:07:04;;;;;;;8.70;5.25;;;;;;;;;;4218171;34;20191;-65
2022/04/24 05:09:30;;;;;;;6.93;5.35;;;;;;;;;;4218151;34;20141;-65
2022/04/24 05:11:56;;;;;;;9.35;4.93;;;;;;;;;;4217746;34;20129;-65
2022/04/24 05:14:22;;;;;;;13.07;6.15;;;;;;;;;;4218246;34;20116;-65
2022/04/24 05:16:48;;;;;;;11.52;5.32;;;;;;;;;;4218740;34;20335;-65
2022/04/24 05:19:14;;;;;;;9.85;5.12;;;;;;;;;;4218705;34;20128;-65
2022/04/24 05:21:40;;;;;;;10.52;4.90;;;;;;;;;;4218828;34;20192;-65
2022/04/24 05:24:06;;;;;;;16.17;5.62;;;;;;;;;;4218924;34;20108;-65
2022/04/24 05:26:32;;;;;;;6.90;5.00;;;;;;;;;;4218780;34;20140;-65
2022/04/24 05:28:58;;;;;;;11.18;4.87;;;;;;;;;;4218512;33;20550;-65
2022/04/24 05:31:24;;;;;;;9.20;5.43;;;;;;;;;;4218560;34;20200;-65
2022/04/24 05:33:50;;;;;;;9.77;5.43;;;;;;;;;;4218382;34;20110;-65
2022/04/24 05:36:16;;;;;;;10.20;5.57;;;;;;;;;;4218533;34;20140;-64
2022/04/24 05:38:42;;;;;;;8.70;5.93;;;;;;;;;;4218628;34;20192;-65
2022/04/24 05:41:08;;;;;;;7.87;5.62;;;;;;;;;;4218599;34;20525;-64
2022/04/24 05:43:34;;;;;;;14.00;5.62;;;;;;;;;;4218392;34;20145;-65
2022/04/24 05:46:00;;;;;;;9.85;6.47;;;;;;;;;;4218519;34;20196;-65
2022/04/24 05:48:26;;;;;;;14.57;5.82;;;;;;;;;;4218392;34;20121;-65
2022/04/24 05:50:52;;;;;;;15.38;5.87;;;;;;;;;;4218389;34;20504;-65
2022/04/24 05:53:18;;;;;;;11.38;5.47;;;;;;;;;;4228537;33;20129;-65
2022/04/24 05:55:44;;;;;;;15.02;5.80;;;;;;;;;;4218415;34;20500;-65
2022/04/24 05:58:10;;;;;;;7.72;5.97;;;;;;;;;;4218537;34;20139;-65
2022/04/24 06:00:36;;;;;;;8.85;6.03;;;;;;;;;;4217983;34;20205;-64
2022/04/24 06:03:02;;;;;;;10.82;6.22;;;;;;;;;;4218546;34;20480;-64
2022/04/24 06:05:29;;;;;;;14.25;5.82;;;;;;;;;;4218633;34;20097;-64
2022/04/24 06:07:55;;;;;;;13.20;5.82;;;;;;;;;;4218228;34;20220;-64
2022/04/24 06:10:21;;;;;;;9.18;6.00;;;;;;;;;;4218207;34;20196;-64
2022/04/24 06:12:46;;;;;;;10.07;4.90;;;;;;;;;;4218222;34;20434;-64
2022/04/24 06:15:15;;;;;;;11.82;5.10;;;;;;;;;;4218599;34;20281;-65
2022/04/24 06:17:49;;;;;;;11.02;5.55;;;;;;;;;;4218162;34;20086;-64
2022/04/24 06:20:16;;;;;;;10.68;5.75;;;;;;;;;;4218297;34;20109;-64
2022/04/24 06:22:49;;;;;;;11.45;5.28;;;;;;;;;;4218033;33;20585;-65
2022/04/24 06:25:16;;;;;;;12.32;5.47;;;;;;;;;;4228639;33;20120;-64
2022/04/24 06:27:43;;;;;;;18.33;7.70;;;;;;;;;;4218003;33;20121;-64
2022/04/24 06:30:11;;;;;;;10.02;5.62;;;;;;;;;;4218297;34;20109;-65
2022/04/24 06:32:39;;;;;;;15.75;6.00;;;;;;;;;;4218229;34;20137;-65
2022/04/24 06:35:06;;;;;;;8.80;5.60;;;;;;;;;;4218103;34;20124;-65
2022/04/24 06:37:32;;;;;;;11.63;6.47;;;;;;;;;;4205071;34;20113;-65
2022/04/24 06:39:58;;;;;;;12.75;6.30;;;;;;;;;;4218117;34;20132;-65
2022/04/24 06:42:24;;;;;;;14.10;6.78;;;;;;;;;;4217899;34;20544;-65
2022/04/24 06:44:50;;;;;;;11.57;5.72;;;;;;;;;;4228482;33;20553;-65
2022/04/24 06:47:16;;;;;;;8.45;5.20;;;;;;;;;;4217873;33;20147;-64
2022/04/24 06:49:42;;;;;;;9.88;5.35;;;;;;;;;;4217995;34;20172;-64
2022/04/24 06:52:08;;;;;;;12.77;5.62;;;;;;;;;;4228032;33;20144;-64
2022/04/24 06:54:34;;;;;;;5.72;4.65;;;;;;;;;;4217995;34;20108;-64
2022/04/24 06:57:01;;;;;;;11.55;4.72;;;;;;;;;;4217975;33;20188;-64
2022/04/24 06:59:28;;;;;;;11.35;4.95;;;;;;;;;;4217610;34;20109;-64
2022/04/24 07:01:54;;;;;;;9.68;4.75;;;;;;;;;;4227893;33;20138;-65
2022/04/24 07:04:20;;;;;;;10.88;5.00;;;;;;;;;;4217767;34;20104;-66
2022/04/24 07:06:46;;;;;;;7.47;4.70;;;;;;;;;;4227947;33;20113;-64
2022/04/24 07:09:13;;;;;;;10.30;5.20;;;;;;;;;;4217602;34;20109;-64
2022/04/24 07:11:40;;;;;;;32.13;5.93;;;;;;;;;;4227877;33;20457;-64
2022/04/24 07:14:06;;;;;;;9.32;4.70;;;;;;;;;;4219719;33;20136;-64
2022/04/24 07:16:35;;;;;;;10.18;4.28;;;;;;;;;;4220061;34;20113;-65
2022/04/24 07:19:01;;;;;;;23.60;5.43;;;;;;;;;;4219609;34;20141;-65
2022/04/24 07:21:27;;;;;;;15.38;4.57;;;;;;;;;;4220022;34;20121;-64
2022/04/24 07:23:53;;;;;;;18.62;5.72;;;;;;;;;;4219926;34;20560;-65
2022/04/24 07:26:19;;;;;;;7.97;5.32;;;;;;;;;;4219767;34;20204;-65
2022/04/24 07:28:45;;;;;;;17.42;4.93;;;;;;;;;;4219585;34;20469;-65
2022/04/24 07:31:14;;;;;;;13.38;5.47;;;;;;;;;;4229844;33;20129;-65
2022/04/24 07:33:40;;;;;;;11.73;4.60;;;;;;;;;;4219380;34;20563;-65
2022/04/24 07:36:07;;;;;;;10.20;4.10;;;;;;;;;;4219704;34;20121;-65
2022/04/24 07:38:32;;;;;;;10.57;4.55;;;;;;;;;;4219662;34;20181;-65
2022/04/24 07:40:59;;;;;;;7.87;3.95;;;;;;;;;;4219679;34;20121;-65
2022/04/24 07:43:25;;;;;;;10.93;4.53;;;;;;;;;;4229587;33;20140;-65
2022/04/24 07:45:51;;;;;;;16.15;4.82;;;;;;;;;;4219592;34;20441;-65
2022/04/24 07:48:17;;;;;;;6.53;4.60;;;;;;;;;;4219573;33;20132;-65
2022/04/24 07:50:49;;;;;;;7.00;4.57;;;;;;;;;;4206501;34;20102;-65
2022/04/24 07:53:16;;;;;;;5.75;4.10;;;;;;;;;;4219339;33;20132;-65
2022/04/24 07:55:48;;;;;;;6.68;3.97;;;;;;;;;;4219580;34;20105;-66
2022/04/24 07:58:14;;;;;;;7.55;3.90;;;;;;;;;;4229690;33;20101;-65
2022/04/24 08:00:41;;;;;;;9.13;4.65;;;;;;;;;;4219869;34;20106;-65
2022/04/24 08:03:11;;;;;;;11.45;4.50;;;;;;;;;;4219417;34;20509;-67
2022/04/24 08:05:45;;;;;;;12.60;5.15;;;;;;;;;;4219362;34;20137;-68
2022/04/24 08:08:14;;;;;;;9.82;4.60;;;;;;;;;;4229476;33;20225;-67
2022/04/24 08:10:42;;;;;;;6.70;4.65;;;;;;;;;;4219531;34;20261;-68
2022/04/24 08:13:08;;;;;;;6.60;4.87;;;;;;;;;;4219462;34;20135;-68
2022/04/24 08:15:36;;;;;;;11.02;4.12;;;;;;;;;;4219532;34;20465;-67
2022/04/24 08:18:03;;;;;;;8.02;4.25;;;;;;;;;;4217619;33;20124;-68
2022/04/24 08:20:29;;;;;;;11.12;4.65;;;;;;;;;;4219481;34;20122;-67
2022/04/24 08:22:57;;;;;;;11.40;4.12;;;;;;;;;;4219037;34;20111;-67
2022/04/24 08:25:25;;;;;;;8.93;4.78;;;;;;;;;;4219211;34;20113;-68
2022/04/24 08:27:52;;;;;;;14.15;4.80;;;;;;;;;;4219113;34;20551;-68
2022/04/24 08:30:19;;;;;;;9.23;4.72;;;;;;;;;;4219116;34;20116;-68
2022/04/24 08:32:46;;;;;;;7.75;4.03;;;;;;;;;;4219044;33;20097;-68
2022/04/24 08:35:15;;;;;;;6.70;4.85;;;;;;;;;;4219396;34;20113;-68
2022/04/24 08:37:41;;;;;;;9.45;4.00;;;;;;;;;;4219035;33;20094;-68
2022/04/24 08:40:08;;;;;;;10.07;4.28;;;;;;;;;;4229239;33;20128;-68
2022/04/24 08:42:35;;;;;;;7.40;4.05;;;;;;;;;;4205953;34;20117;-64
2022/04/24 08:45:01;;;;;;;7.72;3.50;;;;;;;;;;4219127;34;20124;-64
2022/04/24 08:47:28;;;;;;;7.12;3.55;;;;;;;;;;4219067;33;20098;-65
2022/04/24 08:49:59;;;;;;;8.65;4.35;;;;;;;;;;4229248;33;20098;-63
2022/04/24 08:52:30;;;;;;;5.97;3.70;;;;;;;;;;4218839;34;20212;-67
2022/04/24 08:54:57;;;;;;;7.25;4.72;;;;;;;;;;4219066;34;20094;-67
2022/04/24 08:57:26;;;;;;;7.30;4.20;;;;;;;;;;4218985;34;20110;-67
2022/04/24 08:59:56;;;;;;;10.07;4.20;;;;;;;;;;4218989;34;20200;-66
2022/04/24 09:02:22;;;;;;;9.68;3.97;;;;;;;;;;4219062;34;20121;-66
2022/04/24 09:04:49;;;;;;;9.02;4.07;;;;;;;;;;4218908;34;20499;-66
2022/04/24 09:07:18;;;;;;;7.47;3.95;;;;;;;;;;4218796;34;20113;-66
2022/04/24 09:09:46;;;;;;;11.02;4.28;;;;;;;;;;4229248;33;20130;-66
2022/04/24 09:12:14;;;;;;;7.12;3.20;;;;;;;;;;4218634;34;20209;-66
2022/04/24 09:14:41;;;;;;;12.40;4.57;;;;;;;;;;4218676;34;20106;-66
2022/04/24 09:17:19;;;;;;;8.63;3.80;;;;;;;;;;4218974;33;20093;-67
2022/04/24 09:19:46;;;;;;;6.72;3.00;;;;;;;;;;4219084;34;20125;-67
2022/04/24 09:22:13;;;;;;;8.05;3.75;;;;;;;;;;4218505;34;20185;-66
2022/04/24 09:24:49;;;;;;;32.35;5.87;;;;;;;;;;4218875;34;20107;-67
2022/04/24 09:27:32;;;;;;;10.43;3.20;;;;;;;;;;4218815;33;20220;-66
2022/04/24 09:30:00;;;;;;;8.30;4.25;;;;;;;;;;4228056;33;20117;-65
2022/04/24 09:32:28;;;;;;;3.75;3.20;;;;;;;;;;4228572;33;20112;-70
2022/04/24 09:34:55;;;;;;;7.43;3.90;;;;;;;;;;4228241;33;20117;-64
2022/04/24 09:37:21;;;;;;;7.03;3.35;;;;;;;;;;4215783;33;20121;-64
2022/04/24 09:39:48;;;;;;;4.30;3.33;;;;;;;;;;4216438;34;20117;-66
2022/04/24 09:42:18;;;;;;;4.60;3.50;;;;;;;;;;4226479;33;20151;-66
2022/04/24 09:44:51;;;;;;;11.15;4.55;;;;;;;;;;4203652;34;20122;-66
2022/04/24 09:47:22;;;;;;;7.28;3.78;;;;;;;;;;4203458;34;20217;-66
2022/04/24 09:49:50;;;;;;;11.02;3.70;;;;;;;;;;4216681;34;20560;-66
2022/04/24 09:52:22;;;;;;;4.47;3.35;;;;;;;;;;4223570;33;20129;-65
2022/04/24 09:54:50;;;;;;;5.68;3.65;;;;;;;;;;4226902;33;20117;-66
2022/04/24 09:57:17;;;;;;;4.05;3.25;;;;;;;;;;4228858;33;20098;-66
2022/04/24 09:59:45;;;;;;;6.20;3.97;;;;;;;;;;4223822;33;20098;-66
2022/04/24 10:02:12;;;;;;;14.63;4.32;;;;;;;;;;4240591;33;20147;-63
2022/04/24 10:04:39;;;;;;;7.05;3.80;;;;;;;;;;4218485;33;20216;-64
2022/04/24 10:07:06;;;;;;;9.93;7.18;;;;;;;;;;4231451;33;20513;-63
2022/04/24 10:09:34;;;;;;;10.75;4.32;;;;;;;;;;4230541;33;20120;-64
2022/04/24 10:12:05;;;;;;;3.28;2.70;;;;;;;;;;4215873;33;20145;-64
2022/04/24 10:14:33;;;;;;;4.35;2.72;;;;;;;;;;4228968;33;20203;-65
2022/04/24 10:17:54;;;;;;;4.35;3.58;;;;;;;;;;4218837;33;20105;-63
2022/04/24 10:20:49;;;;;;;3.53;3.20;;;;;;;;;;4177834;33;20202;-64
2022/04/24 10:23:27;;;;;;;5.15;3.72;;;;;;;;;;4222403;33;20123;-64
2022/04/24 10:25:53;;;;;;;9.15;3.53;;;;;;;;;;4232249;33;20105;-63
2022/04/24 10:28:20;;;;;;;5.93;3.60;;;;;;;;;;4218756;33;20485;-64
2022/04/24 10:31:04;;;;;;;7.20;3.78;;;;;;;;;;4231995;33;20461;-65
2022/04/24 10:33:32;;;;;;;5.22;3.90;;;;;;;;;;4231789;33;20105;-64
2022/04/24 10:36:12;;;;;;;9.32;5.22;;;;;;;;;;4207476;33;20121;-64
2022/04/24 10:38:57;;;;;;;26.37;9.55;;;;;;;;;;4230540;33;20112;-64
2022/04/24 10:41:24;;;;;;;12.02;7.70;;;;;;;;;;4231966;33;20457;-65
2022/04/24 10:43:56;;;;;;;7.18;5.15;;;;;;;;;;4231880;33;20540;-64
2022/04/24 10:46:26;;;;;;;6.05;3.55;;;;;;;;;;4219778;33;20097;-64
2022/04/24 10:48:53;;;;;;;6.85;4.20;;;;;;;;;;4234036;33;20156;-65
2022/04/24 10:51:27;;;;;;;4.35;3.40;;;;;;;;;;4234039;33;20551;-63
2022/04/24 10:53:58;;;;;;;4.50;3.10;;;;;;;;;;4233952;33;20093;-63
2022/04/24 10:56:26;;;;;;;4.93;3.00;;;;;;;;;;4234102;33;20201;-67
2022/04/24 10:58:52;;;;;;;5.43;3.28;;;;;;;;;;4232370;33;20101;-66
2022/04/24 11:01:18;;;;;;;6.82;3.47;;;;;;;;;;4234024;33;20113;-66
2022/04/24 11:03:47;;;;;;;2.95;2.65;;;;;;;;;;4233878;33;20509;-66
2022/04/24 11:06:21;;;;;;;7.10;2.83;;;;;;;;;;4233931;33;20119;-64
2022/04/24 11:08:47;;;;;;;4.18;3.17;;;;;;;;;;4220805;33;20127;-65
2022/04/24 11:11:14;;;;;;;7.90;3.17;;;;;;;;;;4233773;33;20109;-67
2022/04/24 11:13:41;;;;;;;7.85;3.58;;;;;;;;;;4234037;33;20120;-65
2022/04/24 11:16:07;;;;;;;5.95;3.03;;;;;;;;;;4233890;33;20132;-63
2022/04/24 11:18:33;;;;;;;4.03;2.90;;;;;;;;;;4233739;33;20108;-63
2022/04/24 11:21:06;;;;;;;6.10;2.97;;;;;;;;;;4233778;33;20212;-63
2022/04/24 11:23:35;;;;;;;4.03;2.80;;;;;;;;;;4233566;33;20114;-63
2022/04/24 11:26:05;;;;;;;7.72;2.97;;;;;;;;;;4220765;33;20107;-63
2022/04/24 11:28:35;;;;;;;5.90;3.08;;;;;;;;;;4233435;33;20129;-63
2022/04/24 11:31:17;;;;;;;3.47;3.00;;;;;;;;;;4234076;33;20102;-65
2022/04/24 11:33:58;;;;;;;7.03;4.87;;;;;;;;;;4220380;33;20128;-66
2022/04/24 11:36:30;;;;;;;11.77;6.93;;;;;;;;;;4220649;33;20624;-63
2022/04/24 11:38:57;;;;;;;5.53;2.42;;;;;;;;;;4233498;33;20125;-63
2022/04/24 11:41:27;;;;;;;4.35;2.70;;;;;;;;;;4232978;33;20481;-60
2022/04/24 11:50:13;;;;;;;3.33;2.70;;;;;;;;;;4226380;33;20201;-63
2022/04/24 11:52:25;;;;;;;4.97;2.70;;;;;;;;;;4219378;34;20545;-63
2022/04/24 11:54:54;;;;;;;8.68;3.17;;;;;;;;;;4217731;34;20527;-62
2022/04/24 11:57:20;;;;;;;8.15;3.30;;;;;;;;;;4229268;33;20218;-61
2022/04/24 11:59:55;;;;;;;5.15;3.40;;;;;;;;;;4227267;33;20102;-64
2022/04/24 12:02:25;;;;;;;;;;;;;;;;;;4220626;33;20530;-64
2022/04/24 12:04:51;;;;;;;6.85;3.20;;;;;;;;;;4232489;33;19975;-63
2022/04/24 12:07:17;;;;;;;6.22;3.75;;;;;;;;;;4219552;33;20125;-64
2022/04/24 12:09:43;;;;;;;5.32;3.30;;;;;;;;;;4233368;33;20125;-63
2022/04/24 12:12:12;;;;;;;7.45;3.90;;;;;;;;;;4233144;33;20541;-63
2022/04/24 12:14:40;;;;;;;7.62;3.50;;;;;;;;;;4233428;33;20120;-64
2022/04/24 12:17:10;;;;;;;7.12;3.03;;;;;;;;;;4233543;33;20200;-63
2022/04/24 12:19:40;;;;;;;3.78;2.90;;;;;;;;;;4233141;33;20525;-62
2022/04/24 12:22:08;;;;;;;3.08;2.55;;;;;;;;;;4233290;33;20132;-61
2022/04/24 12:24:41;;;;;;;5.85;2.80;;;;;;;;;;4233119;33;20184;-63
2022/04/24 12:27:09;;;;;;;4.78;2.85;;;;;;;;;;4243567;33;20106;-64
2022/04/24 12:29:48;;;;;;;4.87;3.10;;;;;;;;;;4233010;33;20196;-67
2022/04/24 12:32:15;;;;;;;4.62;2.72;;;;;;;;;;4233320;33;20121;-66
2022/04/24 12:34:42;;;;;;;4.87;2.67;;;;;;;;;;4232991;33;20461;-62
2022/04/24 12:37:09;;;;;;;7.57;4.25;;;;;;;;;;4233104;33;20120;-65
2022/04/24 12:39:35;;;;;;;7.53;2.70;;;;;;;;;;4220256;33;20089;-67
2022/04/24 12:42:17;;;;;;;4.57;2.72;;;;;;;;;;4219906;33;20109;-64
2022/04/24 12:44:44;;;;;;;5.57;3.42;;;;;;;;;;4231658;33;20117;-64
2022/04/24 12:47:10;;;;;;;12.45;6.07;;;;;;;;;;4233081;33;20105;-66
2022/04/24 12:49:36;;;;;;;8.57;4.95;;;;;;;;;;4243377;33;20106;-63
2022/04/24 12:52:03;;;;;;;5.65;3.20;;;;;;;;;;4232954;33;20200;-64
2022/04/24 12:54:29;;;;;;;12.85;6.82;;;;;;;;;;4233216;33;20133;-66
2022/04/24 12:56:55;;;;;;;8.95;3.95;;;;;;;;;;4233000;33;20125;-63
2022/04/24 12:59:22;;;;;;;5.72;2.80;;;;;;;;;;4232948;33;20093;-65
2022/04/24 13:01:48;;;;;;;5.40;3.03;;;;;;;;;;4233021;33;20496;-63
2022/04/24 13:04:16;;;;;;;4.40;2.80;;;;;;;;;;4232857;33;20476;-65
2022/04/24 13:06:42;;;;;;;4.57;2.90;;;;;;;;;;4233031;33;20223;-64
2022/04/24 13:09:11;;;;;;;3.80;2.95;;;;;;;;;;4232508;33;20116;-60
2022/04/24 13:11:37;;;;;;;6.53;2.87;;;;;;;;;;4242334;33;20124;-60
2022/04/24 13:14:03;;;;;;;3.08;2.22;;;;;;;;;;4233146;33;20196;-59
2022/04/24 13:19:14;;;;;;;15.75;9.00;;;;;;;;;;4232919;33;20134;-60
2022/04/24 13:21:42;;;;;;;20.90;12.13;;;;;;;;;;4232744;33;20132;-62
2022/04/24 13:24:08;;;;;;;11.05;6.85;;;;;;;;;;4232482;33;20097;-59
2022/04/24 13:26:34;;;;;;;9.45;3.30;;;;;;;;;;4232611;33;20089;-60
2022/04/24 13:29:00;;;;;;;3.42;2.40;;;;;;;;;;4219891;33;20124;-59
2022/04/24 13:31:26;;;;;;;3.45;2.25;;;;;;;;;;4232692;33;20540;-59
2022/04/24 13:33:52;;;;;;;2.92;2.42;;;;;;;;;;4232791;33;20104;-59
2022/04/24 13:36:18;;;;;;;6.00;2.58;;;;;;;;;;4232542;33;20108;-60
2022/04/24 13:38:44;;;;;;;8.73;2.50;;;;;;;;;;4219407;33;20129;-59
2022/04/24 13:41:13;;;;;;;6.22;3.30;;;;;;;;;;4219528;33;20192;-60
2022/04/24 13:43:39;;;;;;;3.90;2.58;;;;;;;;;;4232746;33;20097;-59
2022/04/24 13:46:05;;;;;;;10.20;3.95;;;;;;;;;;4232569;33;20113;-59
2022/04/24 13:48:32;;;;;;;9.38;7.32;;;;;;;;;;4232758;33;20116;-59
2022/04/24 13:50:59;;;;;;;9.52;3.53;;;;;;;;;;4232749;33;20132;-60
2022/04/24 13:53:26;;;;;;;4.87;2.70;;;;;;;;;;4232331;33;20531;-60
2022/04/24 13:55:53;;;;;;;9.30;2.70;;;;;;;;;;4232490;33;20094;-58
2022/04/24 13:58:20;;;;;;;4.68;2.60;;;;;;;;;;4232441;33;20117;-62
2022/04/24 14:00:47;;;;;;;3.92;2.78;;;;;;;;;;4219410;33;20179;-59
2022/04/24 14:03:13;;;;;;;3.90;2.95;;;;;;;;;;4232268;33;20109;-59
2022/04/24 14:05:40;;;;;;;3.28;2.92;;;;;;;;;;4232362;33;20422;-60
2022/04/24 14:08:06;;;;;;;6.85;3.20;;;;;;;;;;4232343;33;20112;-60
2022/04/24 14:10:32;;;;;;;6.72;3.05;;;;;;;;;;4232428;33;20136;-58
2022/04/24 14:12:58;;;;;;;6.47;3.00;;;;;;;;;;4232187;33;20120;-59
2022/04/24 14:15:28;;;;;;;6.60;2.90;;;;;;;;;;4242530;33;20132;-60
2022/04/24 14:17:55;;;;;;;19.62;4.05;;;;;;;;;;4232290;33;20111;-59
2022/04/24 14:20:25;;;;;;;8.50;3.20;;;;;;;;;;4231945;33;20105;-60
2022/04/24 14:22:51;;;;;;;4.25;3.03;;;;;;;;;;4232185;33;20113;-60
2022/04/24 14:25:17;;;;;;;4.00;2.72;;;;;;;;;;4232207;33;20128;-60
2022/04/24 14:27:43;;;;;;;4.60;3.30;;;;;;;;;;4231995;33;20528;-60
2022/04/24 14:30:10;;;;;;;8.57;3.15;;;;;;;;;;4232036;33;20119;-59
2022/04/24 14:32:40;;;;;;;9.45;3.03;;;;;;;;;;4231926;33;20131;-60
2022/04/24 14:35:17;;;;;;;3.72;2.75;;;;;;;;;;4218890;33;20105;-60
2022/04/24 14:37:43;;;;;;;7.68;3.30;;;;;;;;;;4231562;33;20090;-62
2022/04/24 14:40:09;;;;;;;4.35;2.62;;;;;;;;;;4231109;33;20115;-62
2022/04/24 14:42:36;;;;;;;3.65;2.37;;;;;;;;;;4232019;33;20212;-63
2022/04/24 14:45:03;;;;;;;6.72;3.60;;;;;;;;;;4218660;33;20815;-64
2022/04/24 14:55:46;;;;;;;5.78;2.62;;;;;;;;;;4231919;33;20124;-63
2022/04/24 14:58:17;;;;;;;7.78;3.08;;;;;;;;;;4231824;33;20192;-64
2022/04/24 15:00:44;;;;;;;8.05;3.55;;;;;;;;;;4231621;33;20113;-68
2022/04/24 15:03:11;;;;;;;5.93;2.78;;;;;;;;;;4223518;33;20516;-64
2022/04/24 15:05:38;;;;;;;6.20;2.87;;;;;;;;;;4217732;33;20232;-63
2022/04/24 15:08:05;;;;;;;8.57;3.25;;;;;;;;;;4242169;33;20272;-65
2022/04/24 15:10:32;;;;;;;5.50;2.60;;;;;;;;;;4231599;33;20481;-62
2022/04/24 15:12:59;;;;;;;5.45;2.62;;;;;;;;;;4218592;33;20143;-63
2022/04/24 15:15:25;;;;;;;5.65;2.70;;;;;;;;;;4231625;33;20100;-62
2022/04/24 15:17:51;;;;;;;9.98;3.72;;;;;;;;;;4218419;33;20089;-63
2022/04/24 15:20:17;;;;;;;6.35;3.20;;;;;;;;;;4231463;33;20191;-59
2022/04/24 15:22:43;;;;;;;19.90;3.85;;;;;;;;;;4231759;33;20101;-71
2022/04/24 15:25:12;;;;;;;10.10;3.58;;;;;;;;;;4231517;33;20112;-67
2022/04/24 15:27:38;;;;;;;11.43;3.70;;;;;;;;;;4218250;33;20137;-68
2022/04/24 15:30:05;;;;;;;6.82;3.65;;;;;;;;;;4230387;33;20117;-68